Time;durP1;ratioP1;P1;durP2;ratioP2;P2;SDS_P1;SDS_P2;PMS_P1;PMS_P2;Temp;Humidity;BMP_temperature;BMP_pressure;BME280_temperature;BME280_humidity;BME280_pressure;Samples;Min_cycle;Max_cycle;Signal;HPM_P1;HPM_P2
2021/08/23 00:04:32;;;;;;;6.63;4.15;;;;;;;24.50;nan;95203.38;4942533;29;20510;-77
2021/08/23 00:06:58;;;;;;;6.18;3.97;;;;;;;24.52;nan;95200.13;4927838;29;20054;-77
2021/08/23 00:09:23;;;;;;;5.20;3.92;;;;;;;24.49;nan;95201.16;4942725;28;20035;-77
2021/08/23 00:11:49;;;;;;;5.20;4.00;;;;;;;24.44;nan;95204.69;4944285;28;20027;-77
2021/08/23 00:14:14;;;;;;;6.82;4.35;;;;;;;24.49;nan;95190.97;4944166;28;20015;-78
2021/08/23 00:16:40;;;;;;;5.13;4.30;;;;;;;24.47;nan;95204.41;4943092;29;20047;-77
2021/08/23 00:19:05;;;;;;;5.30;3.92;;;;;;;24.47;nan;95209.13;4928081;29;20034;-77
2021/08/23 00:21:40;;;;;;;6.50;4.00;;;;;;;24.44;nan;95205.41;4943498;28;20047;-77
2021/08/23 00:24:06;;;;;;;4.75;3.60;;;;;;;24.44;nan;95205.41;4943699;28;20031;-77
2021/08/23 00:26:33;;;;;;;5.53;4.30;;;;;;;24.42;nan;95196.25;4943097;29;20035;-76
2021/08/23 00:28:58;;;;;;;5.95;4.38;;;;;;;24.37;nan;95188.88;4942936;28;20047;-77
2021/08/23 00:31:24;;;;;;;6.43;3.92;;;;;;;24.36;nan;95187.38;4927757;29;20054;-77
2021/08/23 00:33:49;;;;;;;7.25;3.90;;;;;;;24.38;nan;95201.28;4942481;29;20031;-77
2021/08/23 00:36:14;;;;;;;6.95;4.40;;;;;;;24.38;nan;95212.19;4943168;29;20544;-78
2021/08/23 00:38:40;;;;;;;5.47;3.80;;;;;;;24.37;nan;95210.69;4944068;29;20047;-77
2021/08/23 00:41:05;;;;;;;6.15;3.55;;;;;;;24.39;nan;95211.69;4954270;28;20038;-77
2021/08/23 00:43:31;;;;;;;4.95;3.88;;;;;;;24.37;nan;95205.25;5001118;28;20029;-77
2021/08/23 00:45:57;;;;;;;7.78;4.43;;;;;;;24.39;nan;95208.94;4986975;28;20030;-78
2021/08/23 00:48:23;;;;;;;7.47;4.30;;;;;;;24.39;nan;95214.41;4986662;28;20028;-77
2021/08/23 00:50:49;;;;;;;6.32;4.22;;;;;;;24.34;nan;95200.81;4970924;28;20022;-78
2021/08/23 00:53:15;;;;;;;5.15;4.13;;;;;;;24.35;nan;95210.47;4986547;28;20030;-78
2021/08/23 00:55:40;;;;;;;6.18;3.88;;;;;;;24.31;nan;95207.25;4987344;28;20061;-77
2021/08/23 00:58:06;;;;;;;6.47;4.30;;;;;;;24.30;nan;95211.22;5003818;28;20424;-77
2021/08/23 01:00:32;;;;;;;5.50;4.10;;;;;;;24.29;nan;95209.75;5007581;28;20044;-77
2021/08/23 01:03:06;;;;;;;5.25;4.32;;;;;;;24.30;nan;95210.50;4988756;28;20042;-77
2021/08/23 01:05:31;;;;;;;6.60;4.10;;;;;;;24.29;nan;95215.22;4991282;28;20050;-77
2021/08/23 01:08:22;;;;;;;5.20;3.85;;;;;;;24.28;nan;95208.28;5007163;28;20131;-78
2021/08/23 01:10:48;;;;;;;5.80;4.10;;;;;;;24.24;nan;95202.34;4991963;28;20138;-78
2021/08/23 01:13:13;;;;;;;6.07;4.00;;;;;;;24.22;nan;95204.84;5007691;28;20038;-79
2021/08/23 01:15:39;;;;;;;6.95;4.05;;;;;;;24.20;nan;95207.38;5007778;28;20064;-79
2021/08/23 01:18:05;;;;;;;6.65;3.70;;;;;;;24.20;nan;95206.59;4989841;28;20038;-78
2021/08/23 01:20:34;;;;;;;6.45;4.18;;;;;;;24.21;nan;95203.38;5007757;28;20073;-78
2021/08/23 01:23:00;;;;;;;4.80;4.18;;;;;;;24.14;nan;95201.22;4988781;28;20197;-78
2021/08/23 01:25:28;;;;;;;7.40;4.40;;;;;;;24.07;nan;95199.03;4973945;28;20551;-77
2021/08/23 01:28:08;;;;;;;5.97;4.10;;;;;;;24.12;nan;95217.34;4988689;28;20471;-77
2021/08/23 01:31:00;;;;;;;5.93;4.00;;;;;;;24.08;nan;95205.22;5006746;28;20121;-76
2021/08/23 01:33:29;;;;;;;4.65;4.10;;;;;;;23.98;nan;95213.00;4991638;28;20046;-78
2021/08/23 01:35:55;;;;;;;5.68;4.20;;;;;;;23.96;nan;95204.59;5007234;28;20088;-78
2021/08/23 01:38:20;;;;;;;6.72;4.32;;;;;;;23.92;nan;95203.38;4989744;28;20026;-77
2021/08/23 01:40:46;;;;;;;5.80;4.40;;;;;;;23.91;nan;95213.53;4990150;28;20084;-79
2021/08/23 01:43:11;;;;;;;4.55;4.05;;;;;;;23.89;nan;95199.69;5007357;28;20111;-79
2021/08/23 01:45:36;;;;;;;5.45;4.07;;;;;;;23.88;nan;95202.91;4988634;28;20033;-79
2021/08/23 01:48:02;;;;;;;8.73;4.18;;;;;;;23.85;nan;95198.47;5005958;28;20037;-79
2021/08/23 01:50:27;;;;;;;5.90;4.22;;;;;;;23.85;nan;95195.00;5004473;28;20033;-79
2021/08/23 01:52:53;;;;;;;6.38;4.20;;;;;;;23.85;nan;95192.28;5006758;28;20048;-78
2021/08/23 01:55:18;;;;;;;7.35;4.00;;;;;;;23.75;nan;95199.28;5005764;28;20048;-77
2021/08/23 01:57:44;;;;;;;6.57;4.20;;;;;;;23.69;nan;95201.31;4989527;28;20666;-77
2021/08/23 02:00:10;;;;;;;7.40;4.65;;;;;;;23.67;nan;95198.38;5006290;28;20026;-77
2021/08/23 02:02:35;;;;;;;6.32;4.53;;;;;;;23.59;nan;95191.97;5005825;28;20500;-77
2021/08/23 02:05:01;;;;;;;6.57;4.25;;;;;;;23.56;nan;95209.31;4973486;28;20037;-78
2021/08/23 02:07:26;;;;;;;4.75;3.97;;;;;;;23.50;nan;95201.19;5005869;28;20084;-78
2021/08/23 02:09:52;;;;;;;7.60;4.38;;;;;;;23.44;nan;95186.09;5004186;28;20105;-77
2021/08/23 02:12:17;;;;;;;7.10;4.47;;;;;;;23.45;nan;95193.03;4989613;28;20018;-79
2021/08/23 02:14:43;;;;;;;6.10;4.07;;;;;;;23.32;nan;95206.50;5013577;28;20021;-78
2021/08/23 02:17:08;;;;;;;6.05;4.25;;;;;;;23.32;nan;95201.03;5013533;28;20040;-78
2021/08/23 02:19:34;;;;;;;6.40;4.30;;;;;;;23.26;nan;95192.16;4989362;28;20239;-78
2021/08/23 02:22:01;;;;;;;5.75;4.43;;;;;;;23.20;nan;95194.19;4988820;28;20052;-78
2021/08/23 02:24:28;;;;;;;6.00;4.10;;;;;;;23.20;nan;95199.63;4988242;28;20061;-76
2021/08/23 02:26:54;;;;;;;6.22;4.13;;;;;;;23.11;nan;95186.28;5006320;28;20085;-78
2021/08/23 02:29:19;;;;;;;5.82;4.18;;;;;;;23.04;nan;95186.81;5004414;28;20026;-78
2021/08/23 02:31:45;;;;;;;7.72;4.25;;;;;;;22.95;nan;95189.09;4988584;28;20022;-79
2021/08/23 02:34:10;;;;;;;5.97;4.20;;;;;;;22.95;nan;95184.38;5005412;28;20060;-77
2021/08/23 02:36:35;;;;;;;6.13;4.47;;;;;;;22.88;nan;95179.44;5004845;28;20064;-78
2021/08/23 02:39:01;;;;;;;6.90;4.05;;;;;;;22.92;nan;95185.34;5005277;28;20033;-78
2021/08/23 02:41:27;;;;;;;5.38;3.85;;;;;;;22.88;nan;95184.91;5006208;28;20064;-76
2021/08/23 02:43:52;;;;;;;5.97;3.97;;;;;;;22.90;nan;95187.84;5005472;28;20112;-77
2021/08/23 02:46:18;;;;;;;6.15;4.13;;;;;;;22.91;nan;95189.34;5005640;28;20034;-78
2021/08/23 02:48:45;;;;;;;5.13;4.20;;;;;;;22.91;nan;95183.88;5006468;28;20034;-78
2021/08/23 02:51:11;;;;;;;5.57;4.20;;;;;;;22.84;nan;95188.34;4988833;28;20464;-78
2021/08/23 02:53:37;;;;;;;6.07;4.30;;;;;;;22.75;nan;95194.09;5005873;28;20030;-78
2021/08/23 02:56:02;;;;;;;6.18;4.53;;;;;;;22.73;nan;95182.97;5004325;28;20036;-77
2021/08/23 02:58:28;;;;;;;7.00;4.88;;;;;;;22.64;nan;95196.84;5005962;28;20104;-78
2021/08/23 03:00:53;;;;;;;5.57;4.45;;;;;;;22.60;nan;95191.69;4987114;28;20060;-77
2021/08/23 03:03:18;;;;;;;6.05;4.20;;;;;;;22.52;nan;95189.97;5004367;28;20052;-78
2021/08/23 03:05:44;;;;;;;8.20;4.75;;;;;;;22.52;nan;95195.41;5005313;28;20034;-78
2021/08/23 03:08:09;;;;;;;5.82;4.35;;;;;;;22.52;nan;95200.84;5004223;28;20041;-78
2021/08/23 03:10:35;;;;;;;6.63;4.72;;;;;;;22.40;nan;95199.38;5006249;28;20022;-79
2021/08/23 03:13:00;;;;;;;6.13;4.70;;;;;;;22.34;nan;95201.38;5004364;28;20521;-78
2021/08/23 03:15:26;;;;;;;6.22;4.47;;;;;;;22.34;nan;95206.09;5005411;28;20049;-79
2021/08/23 03:17:51;;;;;;;5.57;4.68;;;;;;;22.27;nan;95207.34;5004197;28;20040;-77
2021/08/23 03:20:17;;;;;;;6.32;4.55;;;;;;;22.24;nan;95202.91;4987576;28;20076;-77
2021/08/23 03:22:42;;;;;;;5.18;4.45;;;;;;;22.23;nan;95217.72;5005649;28;20052;-78
2021/08/23 03:25:08;;;;;;;6.30;4.47;;;;;;;22.15;nan;95200.41;4987511;28;20135;-78
2021/08/23 03:27:33;;;;;;;5.97;4.68;;;;;;;22.12;nan;95206.84;5005964;28;20033;-77
2021/08/23 03:29:59;;;;;;;6.97;4.40;;;;;;;22.05;nan;95212.75;5005588;28;20099;-76
2021/08/23 03:32:24;;;;;;;6.93;4.88;;;;;;;22.07;nan;95199.41;5004396;28;20068;-77
2021/08/23 03:34:50;;;;;;;8.13;4.82;;;;;;;22.00;nan;95202.63;5003697;28;20096;-78
2021/08/23 03:37:15;;;;;;;6.32;4.72;;;;;;;22.01;nan;95201.38;5006038;28;20496;-78
2021/08/23 03:39:41;;;;;;;5.43;4.40;;;;;;;21.95;nan;95203.38;5001051;28;20779;-77
2021/08/23 03:42:06;;;;;;;6.65;4.55;;;;;;;21.88;nan;95207.81;5006143;28;20056;-78
2021/08/23 03:44:32;;;;;;;6.93;4.60;;;;;;;21.86;nan;95210.31;4986996;28;20026;-79
2021/08/23 03:46:57;;;;;;;7.43;5.03;;;;;;;21.78;nan;95204.63;4988191;28;20042;-79
2021/08/23 03:49:22;;;;;;;6.82;4.38;;;;;;;21.77;nan;95208.56;5006057;28;20108;-78
2021/08/23 03:51:48;;;;;;;7.15;4.90;;;;;;;21.73;nan;95208.06;5006124;28;20037;-78
2021/08/23 03:54:13;;;;;;;5.68;4.55;;;;;;;21.66;nan;95213.25;5005846;28;20396;-79
2021/08/23 03:56:39;;;;;;;6.05;4.38;;;;;;;21.64;nan;95215.72;4986534;28;20034;-78
2021/08/23 03:59:05;;;;;;;7.15;4.90;;;;;;;21.64;nan;95226.59;5004517;28;20030;-78
2021/08/23 04:01:30;;;;;;;6.78;4.50;;;;;;;21.63;nan;95219.69;5004901;28;20033;-78
2021/08/23 04:03:56;;;;;;;7.13;4.82;;;;;;;21.60;nan;95220.66;4986586;28;20052;-78
2021/08/23 04:06:21;;;;;;;6.00;4.78;;;;;;;21.61;nan;95227.56;5004365;28;20084;-78
2021/08/23 04:08:47;;;;;;;6.50;4.80;;;;;;;21.54;nan;95222.63;5005420;28;20042;-78
2021/08/23 04:11:13;;;;;;;6.53;5.05;;;;;;;21.53;nan;95221.88;5004906;28;20018;-79
2021/08/23 04:13:39;;;;;;;9.15;4.97;;;;;;;21.50;nan;95224.84;5005190;28;20025;-78
2021/08/23 04:16:05;;;;;;;6.38;4.70;;;;;;;21.55;nan;95221.38;4988097;28;20632;-78
2021/08/23 04:18:30;;;;;;;7.20;5.00;;;;;;;21.56;nan;95226.31;4986145;28;20129;-78
2021/08/23 04:20:56;;;;;;;5.97;4.90;;;;;;;21.58;nan;95223.88;4971352;28;20104;-77
2021/08/23 04:23:21;;;;;;;6.00;4.82;;;;;;;21.56;nan;95220.88;4969957;28;20060;-78
2021/08/23 04:25:46;;;;;;;7.35;4.63;;;;;;;21.59;nan;95224.59;4987227;28;20065;-78
2021/08/23 04:28:12;;;;;;;7.97;4.72;;;;;;;21.53;nan;95221.88;5003782;28;20081;-78
2021/08/23 04:30:37;;;;;;;5.75;4.82;;;;;;;21.51;nan;95220.91;5004838;28;20028;-78
2021/08/23 04:33:03;;;;;;;7.22;4.97;;;;;;;21.51;nan;95224.34;5003941;28;20033;-78
2021/08/23 04:35:28;;;;;;;7.18;5.10;;;;;;;21.54;nan;95228.06;5008217;28;20037;-78
2021/08/23 04:37:54;;;;;;;7.28;5.05;;;;;;;21.49;nan;95220.63;5008866;28;20040;-79
2021/08/23 04:40:19;;;;;;;7.63;5.63;;;;;;;21.54;nan;95217.94;4990237;28;20506;-79
2021/08/23 04:42:45;;;;;;;6.50;4.95;;;;;;;21.59;nan;95230.03;5008078;28;20033;-79
2021/08/23 04:45:10;;;;;;;7.22;4.50;;;;;;;21.61;nan;95233.00;5008345;28;20397;-78
2021/08/23 04:47:36;;;;;;;7.32;5.07;;;;;;;21.65;nan;95233.50;5009230;28;20076;-79
2021/08/23 04:50:02;;;;;;;7.50;4.70;;;;;;;21.68;nan;95232.53;5009070;28;20444;-78
2021/08/23 04:52:27;;;;;;;6.93;5.15;;;;;;;21.70;nan;95214.50;5008248;28;20042;-77
2021/08/23 04:54:52;;;;;;;8.90;4.95;;;;;;;21.82;nan;95220.66;4990785;28;20451;-83
2021/08/23 04:57:19;;;;;;;8.50;5.50;;;;;;;21.96;nan;95226.59;4989644;28;20038;-75
2021/08/23 04:59:44;;;;;;;8.65;5.00;;;;;;;22.10;nan;95216.72;5008232;28;20033;-72
2021/08/23 05:02:10;;;;;;;8.10;5.30;;;;;;;22.23;nan;95217.72;5008004;28;20030;-72
2021/08/23 05:04:35;;;;;;;8.32;4.88;;;;;;;22.35;nan;95219.19;4990541;28;20492;-72
2021/08/23 05:07:01;;;;;;;7.63;5.03;;;;;;;22.46;nan;95219.16;4989945;28;20030;-73
2021/08/23 05:09:26;;;;;;;8.10;5.15;;;;;;;22.61;nan;95219.63;5007755;28;20022;-73
2021/08/23 05:11:51;;;;;;;8.88;4.50;;;;;;;22.73;nan;95221.06;5008069;28;20033;-73
2021/08/23 05:14:17;;;;;;;7.80;5.10;;;;;;;22.88;nan;95217.56;5007530;28;20029;-76
2021/08/23 05:16:42;;;;;;;8.07;5.50;;;;;;;23.03;nan;95218.03;5008295;28;20040;-76
2021/08/23 05:19:08;;;;;;;9.27;5.43;;;;;;;23.19;nan;95213.75;5007038;28;20052;-77
2021/08/23 05:21:33;;;;;;;7.13;5.57;;;;;;;23.35;nan;95221.84;4990496;28;20033;-76
2021/08/23 05:23:59;;;;;;;9.60;5.03;;;;;;;23.52;nan;95214.28;5008222;28;20029;-78
2021/08/23 05:26:24;;;;;;;8.75;5.63;;;;;;;23.68;nan;95213.50;5005342;28;20026;-71
2021/08/23 05:28:49;;;;;;;7.40;5.13;;;;;;;23.83;nan;95216.59;5003698;28;20029;-72
2021/08/23 05:31:15;;;;;;;7.32;4.85;;;;;;;23.99;nan;95208.28;5005551;28;20026;-72
2021/08/23 05:33:40;;;;;;;9.40;5.05;;;;;;;24.16;nan;95212.34;4991663;28;20033;-72
2021/08/23 05:36:06;;;;;;;8.40;4.72;;;;;;;24.29;nan;95222.66;5005426;28;20037;-72
2021/08/23 05:38:31;;;;;;;8.32;5.50;;;;;;;24.44;nan;95221.81;5003566;28;20041;-74
2021/08/23 05:40:57;;;;;;;7.38;4.95;;;;;;;24.59;nan;95238.53;5005866;28;20029;-78
2021/08/23 05:43:22;;;;;;;8.38;5.22;;;;;;;24.78;nan;95222.19;4988124;28;20018;-75
2021/08/23 05:45:48;;;;;;;7.68;5.25;;;;;;;24.93;nan;95234.19;4987881;28;20029;-75
2021/08/23 05:48:13;;;;;;;8.00;5.20;;;;;;;25.01;nan;95224.19;4988844;28;20030;-75
2021/08/23 05:50:39;;;;;;;6.38;5.03;;;;;;;25.17;nan;95221.28;4988277;28;20022;-76
2021/08/23 05:53:04;;;;;;;6.72;4.88;;;;;;;25.32;nan;95221.56;5005959;28;20033;-72
2021/08/23 05:55:30;;;;;;;8.30;5.25;;;;;;;25.47;nan;95221.84;4979348;28;20027;-76
2021/08/23 05:57:55;;;;;;;9.68;5.00;;;;;;;25.63;nan;95229.09;5002234;28;20064;-75
2021/08/23 06:00:21;;;;;;;9.57;5.25;;;;;;;25.74;nan;95229.72;5000325;28;20542;-73
2021/08/23 06:02:46;;;;;;;8.05;4.72;;;;;;;25.87;nan;95222.31;4963802;28;20069;-74
2021/08/23 06:05:12;;;;;;;9.48;5.60;;;;;;;26.03;nan;95228.78;4986259;28;20030;-75
2021/08/23 06:07:38;;;;;;;12.95;6.10;;;;;;;26.12;nan;95226.38;5005960;28;20026;-73
2021/08/23 06:10:04;;;;;;;8.82;5.43;;;;;;;26.24;nan;95222.19;5006649;28;20022;-73
2021/08/23 06:12:30;;;;;;;11.27;5.75;;;;;;;26.35;nan;95227.50;5006070;28;20018;-73
2021/08/23 06:14:55;;;;;;;12.27;5.57;;;;;;;26.45;nan;95221.09;5016491;28;20017;-73
2021/08/23 06:17:20;;;;;;;10.73;6.05;;;;;;;26.57;nan;95227.13;5006972;28;20041;-72
2021/08/23 06:19:46;;;;;;;9.63;5.95;;;;;;;26.68;nan;95215.97;5007493;28;20037;-73
2021/08/23 06:22:11;;;;;;;12.15;6.50;;;;;;;26.79;nan;95219.25;4987311;28;20049;-75
2021/08/23 06:24:37;;;;;;;9.82;5.93;;;;;;;26.81;nan;95219.44;5003449;28;20022;-76
2021/08/23 06:27:02;;;;;;;8.85;6.30;;;;;;;26.92;nan;95222.00;5005306;28;20442;-76
2021/08/23 06:29:28;;;;;;;9.65;6.10;;;;;;;26.99;nan;95213.88;5002893;28;20123;-77
2021/08/23 06:31:54;;;;;;;9.18;6.07;;;;;;;27.09;nan;95223.16;5003390;28;20025;-75
2021/08/23 06:34:19;;;;;;;9.15;5.30;;;;;;;27.15;nan;95215.56;5001783;28;20575;-78
2021/08/23 06:36:45;;;;;;;10.82;5.70;;;;;;;27.25;nan;95213.88;5004047;28;20061;-73
2021/08/23 06:39:11;;;;;;;11.40;5.68;;;;;;;27.22;nan;95220.41;5005701;28;20025;-71
2021/08/23 06:41:40;;;;;;;9.05;5.40;;;;;;;27.33;nan;95220.19;5000475;28;20029;-72
2021/08/23 06:44:05;;;;;;;8.00;5.30;;;;;;;27.32;nan;95224.19;4988373;28;20036;-72
2021/08/23 06:46:31;;;;;;;12.55;6.80;;;;;;;27.31;nan;95211.75;4994938;28;20026;-73
2021/08/23 06:48:56;;;;;;;10.30;5.20;;;;;;;27.30;nan;95215.75;4987783;28;20017;-73
2021/08/23 06:51:24;;;;;;;12.15;5.88;;;;;;;27.37;nan;95221.34;5001794;28;20484;-73
2021/08/23 06:53:49;;;;;;;14.10;6.35;;;;;;;27.39;nan;95229.03;5004317;28;20030;-73
2021/08/23 06:56:15;;;;;;;8.73;5.00;;;;;;;27.37;nan;95220.59;4987399;28;20642;-72
2021/08/23 06:58:40;;;;;;;8.85;5.15;;;;;;;27.33;nan;95220.19;4998543;28;20018;-73
2021/08/23 07:01:06;;;;;;;9.95;5.28;;;;;;;27.36;nan;95219.13;5000655;28;20034;-73
2021/08/23 07:03:31;;;;;;;13.02;5.32;;;;;;;27.31;nan;95222.72;4997920;28;20223;-73
2021/08/23 07:06:00;;;;;;;9.50;5.30;;;;;;;27.31;nan;95217.25;5001226;28;20393;-73
2021/08/23 07:08:25;;;;;;;7.53;4.80;;;;;;;27.28;nan;95212.81;5005743;28;20038;-72
2021/08/23 07:10:51;;;;;;;7.35;4.80;;;;;;;27.30;nan;95237.69;5005717;28;20033;-73
2021/08/23 07:13:16;;;;;;;7.82;4.43;;;;;;;27.27;nan;95211.34;5005592;28;20034;-72
2021/08/23 07:15:42;;;;;;;6.43;4.07;;;;;;;27.25;nan;95214.59;4988184;28;20087;-73
2021/08/23 07:18:07;;;;;;;7.72;4.13;;;;;;;27.21;nan;95213.44;4988128;28;20028;-72
2021/08/23 07:20:33;;;;;;;9.15;4.47;;;;;;;27.19;nan;95215.25;5005364;28;20034;-73
2021/08/23 07:22:58;;;;;;;5.90;4.40;;;;;;;27.18;nan;95198.06;4988268;28;20022;-73
2021/08/23 07:25:24;;;;;;;6.57;3.92;;;;;;;27.19;nan;95199.53;4988510;28;20041;-73
2021/08/23 07:27:49;;;;;;;7.47;4.60;;;;;;;27.15;nan;95199.13;5005579;28;20018;-72
2021/08/23 07:30:15;;;;;;;10.40;4.32;;;;;;;27.12;nan;95189.19;5005478;28;20052;-72
2021/08/23 07:32:42;;;;;;;6.30;4.57;;;;;;;27.10;nan;95186.25;5005615;28;20056;-72
2021/08/23 07:35:08;;;;;;;5.55;4.38;;;;;;;27.09;nan;95190.25;5005473;28;20026;-73
2021/08/23 07:37:37;;;;;;;8.07;4.90;;;;;;;27.09;nan;95190.25;5005202;28;20551;-72
2021/08/23 07:40:03;;;;;;;7.32;4.88;;;;;;;27.07;nan;95184.59;5005533;28;20123;-72
2021/08/23 07:42:28;;;;;;;7.65;4.65;;;;;;;27.07;nan;95190.06;5005198;28;20064;-72
2021/08/23 07:44:55;;;;;;;7.30;4.40;;;;;;;27.05;nan;95195.31;5005199;28;20045;-73
2021/08/23 07:47:20;;;;;;;6.05;4.50;;;;;;;27.07;nan;95192.81;5005363;28;20022;-73
2021/08/23 07:49:45;;;;;;;6.38;4.30;;;;;;;27.08;nan;95194.25;5004931;28;20411;-73
2021/08/23 07:52:11;;;;;;;7.10;4.70;;;;;;;27.10;nan;95191.00;5005436;28;20492;-73
2021/08/23 07:54:37;;;;;;;7.35;4.22;;;;;;;27.10;nan;95180.03;5005111;28;20096;-73
2021/08/23 07:57:03;;;;;;;6.05;4.60;;;;;;;27.10;nan;95180.78;5005363;28;20100;-73
2021/08/23 07:59:29;;;;;;;8.60;4.35;;;;;;;27.10;nan;95186.25;5002083;28;20034;-72
2021/08/23 08:01:54;;;;;;;6.43;4.30;;;;;;;27.12;nan;95183.72;5004973;28;20053;-72
2021/08/23 08:04:20;;;;;;;7.70;4.90;;;;;;;27.11;nan;95181.50;5003326;28;20522;-72
2021/08/23 08:06:45;;;;;;;6.68;4.50;;;;;;;27.11;nan;95182.25;5003589;28;20034;-72
2021/08/23 08:09:11;;;;;;;9.55;4.97;;;;;;;27.12;nan;95178.25;5006101;28;20572;-72
2021/08/23 08:11:37;;;;;;;7.90;5.43;;;;;;;27.10;nan;95175.28;5007000;28;20044;-72
2021/08/23 08:14:02;;;;;;;7.03;4.85;;;;;;;27.12;nan;95172.75;5008033;28;20014;-72
2021/08/23 08:16:28;;;;;;;7.10;4.50;;;;;;;27.14;nan;95170.22;5006811;28;20033;-77
2021/08/23 08:18:54;;;;;;;7.15;4.93;;;;;;;27.20;nan;95168.09;5006470;28;20084;-74
2021/08/23 08:21:21;;;;;;;9.10;4.57;;;;;;;27.25;nan;95170.72;5007825;28;20512;-75
2021/08/23 08:23:47;;;;;;;9.20;4.63;;;;;;;27.22;nan;95171.06;5006914;28;20141;-74
2021/08/23 08:26:13;;;;;;;6.97;4.40;;;;;;;27.28;nan;95163.44;5007409;28;20034;-74
2021/08/23 08:28:38;;;;;;;7.47;5.07;;;;;;;27.26;100.00;95165.97;5006262;28;20072;-73
2021/08/23 08:31:03;;;;;;;6.93;5.03;;;;;;;27.24;nan;95173.28;5007238;28;20037;-73
2021/08/23 08:33:29;;;;;;;8.32;5.00;;;;;;;27.22;nan;95165.56;5004982;28;20025;-71
2021/08/23 08:35:58;;;;;;;8.15;4.93;;;;;;;27.23;nan;95161.53;5007124;28;20034;-74
2021/08/23 08:38:25;;;;;;;7.22;4.55;;;;;;;27.23;nan;95155.34;5008461;28;20048;-71
2021/08/23 08:40:50;;;;;;;7.65;4.72;;;;;;;27.26;nan;95165.97;5006209;28;20087;-72
2021/08/23 08:43:16;;;;;;;6.97;4.70;;;;;;;-95.25;nan;63287.88;4989202;28;20022;-71
2021/08/23 08:45:43;;;;;;;7.97;4.50;;;;;;;27.28;nan;95157.97;4996250;28;20061;-72
2021/08/23 08:48:08;;;;;;;7.40;4.88;;;;;;;27.28;nan;95157.97;4974153;28;20030;-71
2021/08/23 08:50:33;;;;;;;7.30;4.70;;;;;;;27.31;100.00;94896.53;4987985;28;20040;-72
2021/08/23 08:53:03;;;;;;;5.32;4.10;;;;;;;27.32;nan;95152.88;5005780;28;20450;-71
2021/08/23 08:55:30;;;;;;;;;;;;;;;27.32;nan;95163.84;5007563;28;20136;-71
2021/08/23 08:57:55;;;;;;;7.43;4.30;;;;;;;27.32;nan;95152.88;5006264;28;20643;-71
2021/08/23 09:00:21;;;;;;;6.45;4.68;;;;;;;27.34;nan;95155.84;5005395;28;20029;-72
2021/08/23 09:02:56;;;;;;;5.22;4.05;;;;;;;27.36;nan;95153.28;4962637;28;1225047;-72
2021/08/23 09:05:21;;;;;;;8.77;4.60;;;;;;;27.36;nan;95154.03;5008219;28;20474;-73
2021/08/23 09:07:48;;;;;;;10.63;4.60;;;;;;;27.41;nan;95152.41;5007815;28;20021;-74
2021/08/23 09:10:34;;;;;;;6.43;4.60;;;;;;;27.44;nan;95143.88;4989964;28;20033;-74
2021/08/23 09:13:07;;;;;;;7.95;4.40;;;;;;;27.48;nan;95138.06;5008047;28;20030;-74
2021/08/23 09:15:33;;;;;;;6.50;4.88;;;;;;;27.54;nan;95141.44;4991188;28;20041;-74
2021/08/23 09:18:06;;;;;;;8.05;4.28;;;;;;;27.59;nan;95132.34;5008784;28;20030;-74
2021/08/23 09:20:35;;;;;;;7.38;4.60;;;;;;;27.67;nan;95127.66;5028617;28;20041;-78
2021/08/23 09:23:12;;;;;;;6.68;3.65;;;;;;;27.74;nan;95117.50;4990883;28;20068;-74
2021/08/23 09:25:37;;;;;;;7.90;4.28;;;;;;;27.84;nan;95121.22;4993784;28;20049;-73
2021/08/23 09:28:04;;;;;;;6.82;4.50;;;;;;;27.95;nan;95126.47;4999269;28;20041;-73
2021/08/23 09:30:29;;;;;;;6.40;4.03;;;;;;;28.07;nan;95121.41;5012242;28;20124;-73
2021/08/23 09:32:57;;;;;;;8.30;3.97;;;;;;;28.18;nan;95121.91;5007536;28;20038;-74
2021/08/23 09:35:30;;;;;;;8.57;4.30;;;;;;;28.30;nan;95112.09;5007841;28;20121;-73
2021/08/23 09:37:56;;;;;;;6.30;4.28;;;;;;;28.42;nan;95113.28;4994000;28;20408;-73
2021/08/23 09:40:26;;;;;;;7.57;4.68;;;;;;;28.53;nan;95118.47;5007500;28;20041;-74
2021/08/23 09:42:57;;;;;;;7.00;4.78;;;;;;;28.66;nan;95110.13;4990204;28;20034;-74
2021/08/23 09:45:22;;;;;;;7.10;4.68;;;;;;;28.77;nan;95105.81;5007700;28;20022;-74
2021/08/23 09:47:48;;;;;;;6.28;4.47;;;;;;;28.90;nan;95108.44;5007386;28;20103;-75
2021/08/23 09:50:16;;;;;;;7.32;4.30;;;;;;;28.99;nan;95094.16;4976300;28;20492;-74
2021/08/23 09:52:42;;;;;;;6.30;4.03;;;;;;;29.10;nan;95099.34;5003149;28;20034;-77
2021/08/23 09:55:09;;;;;;;7.10;3.97;;;;;;;-140.79;100.00;63287.88;4999374;28;20037;-78
2021/08/23 09:57:38;;;;;;;6.15;4.30;;;;;;;29.36;nan;95093.59;5001376;28;20053;-76
2021/08/23 10:00:08;;;;;;;6.70;4.40;;;;;;;29.55;nan;95093.97;4960858;28;20038;-73
2021/08/23 10:02:33;;;;;;;;;;;;;;;29.67;nan;95078.59;4989986;28;20061;-72
2021/08/23 10:04:58;;;;;;;5.23;3.90;;;;;;;29.80;nan;95088.16;4989491;28;19916;-74
2021/08/23 10:07:27;;;;;;;5.85;4.10;;;;;;;29.90;nan;95075.31;4973291;28;20260;-75
2021/08/23 10:09:52;;;;;;;5.82;3.90;;;;;;;29.92;nan;95070.00;5006803;28;20037;-73
2021/08/23 10:12:17;;;;;;;4.85;3.90;;;;;;;29.92;nan;95072.75;5007216;28;20030;-74
2021/08/23 10:14:43;;;;;;;5.60;4.00;;;;;;;29.96;nan;95067.59;4996850;28;20038;-72
2021/08/23 10:17:09;;;;;;;6.13;3.78;;;;;;;30.01;nan;95079.72;4994956;28;20034;-75
2021/08/23 10:19:35;;;;;;;5.95;3.95;;;;;;;30.05;nan;95069.81;5014899;28;20912;-74
2021/08/23 10:22:00;;;;;;;5.13;3.80;;;;;;;30.11;nan;95067.59;5006963;28;20018;-80
2021/08/23 10:24:27;;;;;;;4.80;3.78;;;;;;;30.16;nan;95065.94;4989146;28;20075;-83
2021/08/23 10:26:53;;;;;;;4.50;3.38;;;;;;;30.20;nan;95056.00;4975376;28;20097;-76
2021/08/23 10:29:18;;;;;;;5.32;3.60;;;;;;;-140.79;nan;77542.84;4989327;28;20096;-75
2021/08/23 10:31:44;;;;;;;8.55;4.00;;;;;;;30.17;nan;95065.38;5019571;28;21018;-73
2021/08/23 10:34:16;;;;;;;6.38;3.83;;;;;;;30.27;nan;95058.03;4972567;28;20037;-72
2021/08/23 10:36:43;;;;;;;6.38;4.00;;;;;;;30.29;nan;95049.94;5004234;28;20061;-73
2021/08/23 10:39:08;;;;;;;6.05;3.65;;;;;;;30.37;nan;95045.16;5005250;28;20103;-73
2021/08/23 10:41:34;;;;;;;6.80;3.92;;;;;;;30.42;nan;95035.97;5004010;28;20026;-73
2021/08/23 10:44:00;;;;;;;5.63;4.20;;;;;;;30.41;nan;95037.25;4986905;28;20026;-74
2021/08/23 10:46:39;;;;;;;6.75;4.22;;;;;;;30.34;nan;95035.25;4995979;28;20027;-73
2021/08/23 10:49:14;;;;;;;8.00;4.22;;;;;;;30.34;nan;95035.25;4994760;28;20025;-73
2021/08/23 10:51:42;;;;;;;5.78;3.83;;;;;;;30.22;nan;95023.13;4994111;28;20421;-74
2021/08/23 10:54:24;;;;;;;6.90;4.20;;;;;;;30.15;nan;95029.41;4973519;28;20488;-73
2021/08/23 10:57:04;;;;;;;6.93;4.60;;;;;;;30.13;nan;95026.44;4992855;28;20452;-73
2021/08/23 10:59:46;;;;;;;8.52;3.88;;;;;;;30.02;nan;95018.56;5006046;28;20052;-73
2021/08/23 11:02:13;;;;;;;7.13;4.05;;;;;;;29.95;nan;95016.56;4972612;28;20021;-74
2021/08/23 11:04:42;;;;;;;7.47;3.85;;;;;;;29.87;nan;95010.31;4997564;28;20030;-73
2021/08/23 11:07:08;;;;;;;6.07;3.70;;;;;;;29.79;nan;95003.31;4997215;28;20475;-74
2021/08/23 11:09:39;;;;;;;5.45;3.85;;;;;;;29.72;nan;95004.81;5011429;28;20041;-73
2021/08/23 11:12:11;;;;;;;6.30;3.80;;;;;;;29.74;nan;95013.22;4975066;28;20072;-73
2021/08/23 11:14:47;;;;;;;6.90;4.07;;;;;;;29.69;nan;95005.91;5006394;28;20065;-74
2021/08/23 11:17:13;;;;;;;6.28;4.10;;;;;;;29.67;nan;95007.00;4980214;28;20037;-73
2021/08/23 11:19:39;;;;;;;6.10;4.00;;;;;;;29.66;nan;95005.56;5001127;28;20748;-73
2021/08/23 11:22:04;;;;;;;8.38;3.92;;;;;;;29.67;nan;94991.97;4994266;28;20061;-72
2021/08/23 11:24:30;;;;;;;7.05;3.88;;;;;;;29.65;nan;95004.06;5003398;28;20484;-72
2021/08/23 11:27:00;;;;;;;8.70;4.18;;;;;;;29.62;nan;94988.66;4985270;28;20092;-73
2021/08/23 11:29:26;;;;;;;8.75;4.90;;;;;;;29.59;nan;94984.25;4980355;28;20061;-73
2021/08/23 11:32:01;;;;;;;8.32;4.13;;;;;;;29.56;nan;94979.84;4986681;28;20057;-72
2021/08/23 11:34:28;;;;;;;7.55;4.18;;;;;;;29.52;nan;94974.72;5004410;28;20034;-72
2021/08/23 11:36:59;;;;;;;5.50;3.67;;;;;;;29.50;nan;94982.06;4987646;28;20036;-72
2021/08/23 11:39:30;;;;;;;4.97;3.83;;;;;;;29.47;nan;94977.66;4999679;28;20040;-72
2021/08/23 11:41:57;;;;;;;6.78;3.67;;;;;;;29.45;nan;94969.94;4999843;28;20037;-72
2021/08/23 11:44:22;;;;;;;5.60;3.72;;;;;;;29.44;nan;94978.75;5002066;28;20548;-73
2021/08/23 11:46:58;;;;;;;6.20;3.95;;;;;;;29.43;nan;94967.03;5004588;28;20076;-72
2021/08/23 11:49:34;;;;;;;7.32;3.72;;;;;;;29.42;nan;94981.31;4987466;28;20531;-72